createdAt,value
2019-02-21T00:04:17.830Z,99.59
2019-02-21T00:09:13.606Z,98.87
2019-02-21T00:14:09.504Z,99.57
2019-02-21T00:19:05.327Z,97.82
2019-02-21T00:24:01.305Z,97.67
2019-02-21T00:28:57.226Z,98.82
2019-02-21T00:33:53.101Z,98.78
2019-02-21T00:38:48.883Z,97.75
2019-02-21T00:43:45.870Z,97.93
2019-02-21T00:48:41.726Z,98.54
2019-02-21T00:53:37.610Z,97.13
2019-02-21T00:58:46.880Z,97.04
2019-02-21T01:03:42.802Z,99.06
2019-02-21T01:08:38.644Z,99.68
2019-02-21T01:13:34.546Z,99.07
2019-02-21T01:18:32.887Z,99.37
2019-02-21T01:23:30.195Z,99.09
2019-02-21T01:28:25.985Z,100.00
2019-02-21T01:33:24.573Z,98.20
2019-02-21T01:38:20.479Z,98.14
2019-02-21T01:43:16.264Z,98.90
2019-02-21T01:48:13.793Z,99.42
2019-02-21T01:53:13.536Z,99.40
2019-02-21T01:58:11.812Z,98.47
2019-02-21T02:03:12.417Z,98.43
2019-02-21T02:08:13.044Z,98.39
2019-02-21T02:13:23.691Z,99.50
2019-02-21T02:18:09.440Z,100.00
2019-02-21T02:23:05.378Z,100.00
2019-02-21T02:28:10.220Z,99.46
2019-02-21T02:33:09.051Z,98.46
2019-02-21T02:38:06.683Z,98.67
2019-02-21T02:43:02.493Z,98.86
2019-02-21T02:48:04.317Z,99.07
2019-02-21T02:53:00.211Z,99.97
2019-02-21T02:57:58.896Z,100.00
2019-02-21T03:02:54.778Z,100.00
2019-02-21T03:07:55.524Z,99.05
2019-02-21T03:12:54.838Z,97.47
2019-02-21T03:17:51.011Z,100.00
2019-02-21T03:22:47.391Z,100.00
2019-02-21T03:27:43.351Z,100.00
2019-02-21T03:32:39.331Z,100.00
2019-02-21T03:37:35.141Z,100.00
2019-02-21T03:42:31.009Z,100.00
2019-02-21T03:47:26.914Z,100.00
2019-02-21T03:52:22.731Z,100.00
2019-02-21T03:57:18.607Z,99.92
2019-02-21T04:02:14.540Z,100.00
2019-02-21T04:07:10.403Z,100.00
2019-02-21T04:12:06.217Z,99.64
2019-02-21T04:17:02.064Z,100.00
2019-02-21T04:21:57.893Z,100.00
2019-02-21T04:26:53.736Z,100.00
2019-02-21T04:31:49.529Z,100.00
2019-02-21T04:36:45.341Z,100.00
2019-02-21T04:41:41.274Z,100.00
2019-02-21T04:46:37.164Z,100.00
2019-02-21T04:51:33.112Z,100.00
2019-02-21T04:56:30.499Z,100.00
2019-02-21T05:01:26.400Z,100.00
2019-02-21T05:06:22.244Z,100.00
2019-02-21T05:11:18.196Z,100.00
2019-02-21T05:16:14.264Z,100.00
2019-02-21T05:21:10.072Z,100.00
2019-02-21T05:26:06.317Z,100.00
2019-02-21T05:31:20.977Z,100.00
2019-02-21T05:36:53.673Z,100.00
2019-02-21T05:42:08.322Z,100.00
2019-02-21T05:47:28.929Z,100.00
2019-02-21T05:52:36.063Z,100.00
2019-02-21T05:58:00.006Z,100.00
2019-02-21T06:03:07.673Z,100.00
2019-02-21T06:08:10.208Z,100.00
2019-02-21T06:13:36.824Z,100.00
2019-02-21T06:18:58.430Z,100.00
2019-02-21T06:24:04.247Z,100.00
2019-02-21T06:29:06.385Z,100.00
2019-02-21T06:34:02.358Z,100.00
2019-02-21T06:38:58.348Z,100.00
2019-02-21T06:43:56.845Z,100.00
2019-02-21T06:48:54.385Z,100.00
2019-02-21T06:53:50.632Z,100.00
2019-02-21T06:58:47.835Z,100.00
2019-02-21T07:03:43.675Z,100.00
2019-02-21T07:08:40.206Z,100.00
2019-02-21T07:13:40.464Z,100.00
2019-02-21T07:18:40.843Z,100.00
2019-02-21T07:23:43.541Z,100.00
2019-02-21T07:28:34.296Z,100.00
2019-02-21T07:33:30.317Z,100.00
2019-02-21T07:38:26.342Z,100.00
2019-02-21T07:43:25.980Z,100.00
2019-02-21T07:48:24.154Z,100.00
2019-02-21T07:53:20.689Z,100.00
2019-02-21T07:58:19.680Z,100.00
2019-02-21T08:03:15.626Z,100.00
2019-02-21T08:08:11.688Z,100.00
2019-02-21T08:13:09.602Z,100.00
2019-02-21T08:18:07.315Z,100.00
2019-02-21T08:23:03.290Z,100.00
2019-02-21T08:27:59.134Z,100.00
2019-02-21T08:33:29.592Z,100.00
2019-02-21T08:38:26.708Z,100.00
2019-02-21T08:43:23.234Z,100.00
2019-02-21T08:48:26.910Z,100.00
2019-02-21T08:53:22.801Z,100.00
2019-02-21T08:58:18.997Z,100.00
2019-02-21T09:03:17.908Z,100.00
2019-02-21T09:08:12.484Z,100.00
2019-02-21T09:13:08.509Z,100.00
2019-02-21T09:18:05.002Z,100.00
2019-02-21T09:23:01.672Z,100.00
2019-02-21T09:27:59.779Z,100.00
2019-02-21T09:32:55.094Z,100.00
2019-02-21T09:37:51.017Z,100.00
2019-02-21T09:42:46.852Z,100.00
2019-02-21T09:47:42.731Z,100.00
2019-02-21T09:52:38.613Z,100.00
2019-02-21T09:57:34.415Z,98.06
2019-02-21T10:02:30.362Z,94.44
2019-02-21T10:07:26.318Z,94.89
2019-02-21T10:12:22.430Z,93.66
2019-02-21T10:17:18.455Z,94.38
2019-02-21T10:22:14.390Z,95.15
2019-02-21T10:27:10.314Z,94.85
2019-02-21T10:32:06.130Z,94.50
2019-02-21T10:37:01.972Z,92.68
2019-02-21T10:41:57.878Z,92.65
2019-02-21T10:46:53.746Z,90.99
2019-02-21T10:51:49.595Z,87.40
2019-02-21T10:56:45.578Z,88.10
2019-02-21T11:01:41.462Z,81.94
2019-02-21T11:06:37.398Z,80.77
2019-02-21T11:11:34.466Z,81.04
2019-02-21T11:16:30.367Z,79.29
2019-02-21T11:21:26.872Z,75.63
2019-02-21T11:26:23.045Z,78.28
2019-02-21T11:31:19.082Z,80.50
2019-02-21T11:36:15.108Z,80.56
2019-02-21T11:41:11.198Z,76.24
2019-02-21T11:46:08.474Z,78.77
2019-02-21T11:51:04.409Z,75.79
2019-02-21T11:56:00.349Z,79.35
2019-02-21T12:00:56.317Z,79.11
2019-02-21T12:05:52.090Z,77.38
2019-02-21T12:10:50.669Z,79.09
2019-02-21T12:15:45.948Z,77.84
2019-02-21T12:20:42.011Z,76.80
2019-02-21T12:25:37.890Z,77.00
2019-02-21T12:30:33.836Z,77.50
2019-02-21T12:35:30.323Z,73.37
2019-02-21T12:40:26.451Z,73.83
2019-02-21T12:45:23.855Z,73.28
2019-02-21T12:50:19.809Z,71.49
2019-02-21T12:55:26.910Z,72.51
2019-02-21T13:00:19.742Z,72.46
2019-02-21T13:05:15.735Z,74.01
2019-02-21T13:10:14.243Z,72.88
2019-02-21T13:15:12.148Z,74.03
2019-02-21T13:20:11.159Z,77.63
2019-02-21T13:25:07.783Z,78.56
2019-02-21T13:30:05.704Z,78.24
2019-02-21T13:35:01.542Z,77.70
2019-02-21T13:39:57.375Z,78.77
2019-02-21T13:44:53.276Z,77.08
2019-02-21T13:49:49.057Z,74.42
2019-02-21T13:54:44.885Z,75.36
2019-02-21T13:59:42.373Z,74.77
2019-02-21T14:04:38.232Z,76.19
2019-02-21T14:09:34.021Z,74.74
2019-02-21T14:14:30.933Z,73.52
2019-02-21T14:19:26.842Z,75.17
2019-02-21T14:24:22.727Z,74.33
2019-02-21T14:29:18.516Z,74.35
2019-02-21T14:34:15.530Z,73.83
2019-02-21T14:39:11.957Z,71.24
2019-02-21T14:44:07.984Z,71.92
2019-02-21T14:49:03.836Z,69.24
2019-02-21T14:53:59.730Z,68.57
2019-02-21T14:58:55.626Z,68.87
2019-02-21T15:03:51.601Z,67.13
2019-02-21T15:08:47.817Z,65.02
2019-02-21T15:13:43.635Z,67.74
2019-02-21T15:18:42.367Z,67.95
2019-02-21T15:23:38.309Z,67.38
2019-02-21T15:28:34.139Z,67.45
2019-02-21T15:33:29.976Z,66.75
2019-02-21T15:44:37.312Z,65.14
2019-02-21T15:49:33.140Z,66.12
2019-02-21T15:54:29.201Z,66.26
2019-02-21T15:59:25.034Z,65.24
2019-02-21T16:04:21.057Z,66.63
2019-02-21T16:09:17.614Z,64.92
2019-02-21T16:14:13.476Z,65.17
2019-02-21T16:19:09.453Z,66.28
2019-02-21T16:24:08.615Z,66.19
2019-02-21T16:29:04.613Z,66.73
2019-02-21T16:34:00.613Z,70.29
2019-02-21T16:38:58.696Z,71.00
2019-02-21T16:43:54.550Z,71.46
2019-02-21T16:48:50.414Z,73.65
2019-02-21T16:53:46.218Z,75.03
2019-02-21T16:58:42.961Z,78.76
2019-02-21T17:03:38.897Z,80.79
2019-02-21T17:08:34.757Z,80.42
2019-02-21T17:13:30.959Z,81.57
2019-02-21T17:18:26.885Z,80.25
2019-02-21T17:23:23.270Z,80.96
2019-02-21T17:28:22.494Z,81.04
2019-02-21T17:33:18.453Z,83.50
2019-02-21T17:38:14.585Z,82.56
2019-02-21T17:43:11.664Z,80.97
2019-02-21T17:48:07.571Z,81.79
2019-02-21T17:53:03.616Z,83.18
2019-02-21T17:57:59.440Z,84.57
2019-02-21T18:02:55.300Z,80.74
2019-02-21T18:07:54.219Z,82.58
2019-02-21T18:12:50.454Z,81.78
2019-02-21T18:17:46.423Z,83.89
2019-02-21T18:22:42.410Z,87.47
2019-02-21T18:27:38.437Z,86.34
2019-02-21T18:32:34.516Z,85.62
2019-02-21T18:37:35.230Z,86.22
2019-02-21T18:42:32.641Z,86.31
2019-02-21T18:47:28.540Z,87.10
2019-02-21T18:52:24.389Z,84.28
2019-02-21T18:57:20.965Z,87.23
2019-02-21T19:02:19.822Z,87.19
2019-02-21T19:07:16.698Z,86.74
2019-02-21T19:12:13.762Z,87.02
2019-02-21T19:17:11.451Z,87.06
2019-02-21T19:22:07.510Z,88.25
2019-02-21T19:27:03.565Z,87.86
2019-02-21T19:32:01.674Z,88.73
2019-02-21T19:36:57.811Z,87.28
2019-02-21T19:41:53.830Z,87.15
2019-02-21T19:46:50.057Z,88.47
2019-02-21T19:51:46.191Z,90.10
2019-02-21T19:56:42.140Z,89.36
2019-02-21T20:01:38.330Z,89.87
2019-02-21T20:06:34.998Z,89.54
2019-02-21T20:11:30.992Z,91.00
2019-02-21T20:16:26.890Z,91.10
2019-02-21T20:21:29.182Z,92.67
2019-02-21T20:26:25.179Z,92.51
2019-02-21T20:31:21.069Z,92.79
2019-02-21T20:36:16.994Z,91.56
2019-02-21T20:41:12.985Z,90.24
2019-02-21T20:46:08.923Z,91.14
2019-02-21T20:51:04.811Z,91.74
2019-02-21T20:56:00.701Z,91.86
2019-02-21T21:00:57.605Z,92.27
2019-02-21T21:05:53.542Z,91.85
2019-02-21T21:10:49.502Z,91.41
2019-02-21T21:15:45.384Z,93.20
2019-02-21T21:20:41.320Z,92.42
2019-02-21T21:25:37.144Z,92.64
2019-02-21T21:30:33.356Z,91.83
2019-02-21T21:35:29.239Z,91.99
2019-02-21T21:40:25.290Z,92.91
2019-02-21T21:45:21.861Z,91.80
2019-02-21T21:50:18.601Z,91.87
2019-02-21T21:55:14.658Z,91.64
2019-02-21T22:00:17.863Z,92.14
2019-02-21T22:05:13.479Z,91.58
2019-02-21T22:10:10.409Z,91.06
2019-02-21T22:15:06.860Z,91.27
2019-02-21T22:20:02.718Z,91.35
2019-02-21T22:24:58.841Z,91.78
2019-02-21T22:29:54.857Z,92.63
2019-02-21T22:34:52.809Z,93.15
2019-02-21T22:39:48.772Z,91.56
2019-02-21T22:44:47.010Z,91.51
2019-02-21T22:49:44.105Z,92.52
2019-02-21T22:54:40.225Z,93.11
2019-02-21T22:59:36.259Z,94.02
2019-02-21T23:05:41.944Z,93.63
2019-02-21T23:10:37.803Z,94.88
2019-02-21T23:15:35.656Z,95.23
2019-02-21T23:20:31.211Z,96.45
2019-02-21T23:25:34.552Z,95.86
2019-02-21T23:30:34.729Z,95.75
2019-02-21T23:35:32.804Z,96.15
2019-02-21T23:40:29.879Z,96.25
2019-02-21T23:45:26.859Z,96.17
2019-02-21T23:50:24.273Z,95.31
2019-02-21T23:55:22.345Z,95.51
